sensor_id;sensor_type;location;lat;lon;timestamp;pressure;altitude;pressure_sealevel;temperature;humidity
28354;BME280;15603;50.878;8.036;2022-08-11T00:01:04;147505.19;;;17.91;65.75
28354;BME280;15603;50.878;8.036;2022-08-11T00:03:32;147385.47;;;17.40;66.88
28354;BME280;15603;50.878;8.036;2022-08-11T00:06:10;147419.63;;;17.55;66.36
28354;BME280;15603;50.878;8.036;2022-08-11T00:08:40;147489.28;;;17.84;66.12
28354;BME280;15603;50.878;8.036;2022-08-11T00:11:10;147478.25;;;17.79;66.27
28354;BME280;15603;50.878;8.036;2022-08-11T00:13:42;147461.16;;;17.72;67.08
28354;BME280;15603;50.878;8.036;2022-08-11T00:16:18;147464.81;;;17.74;67.77
28354;BME280;15603;50.878;8.036;2022-08-11T00:18:51;147457.53;;;17.71;67.27
28354;BME280;15603;50.878;8.036;2022-08-11T00:21:21;147447.72;;;17.66;66.96
28354;BME280;15603;50.878;8.036;2022-08-11T00:24:09;147435.53;;;17.61;67.56
28354;BME280;15603;50.878;8.036;2022-08-11T00:26:36;147420.88;;;17.55;67.26
28354;BME280;15603;50.878;8.036;2022-08-11T00:29:10;147409.88;;;17.51;66.76
28354;BME280;15603;50.878;8.036;2022-08-11T00:31:43;147422.09;;;17.56;67.58
28354;BME280;15603;50.878;8.036;2022-08-11T00:34:12;147392.75;;;17.43;69.16
28354;BME280;15603;50.878;8.036;2022-08-11T00:36:49;147402.56;;;17.48;67.72
28354;BME280;15603;50.878;8.036;2022-08-11T00:39:19;147401.31;;;17.47;69.12
28354;BME280;15603;50.878;8.036;2022-08-11T00:45:03;147387.88;;;17.41;69.47
28354;BME280;15603;50.878;8.036;2022-08-11T00:48:01;147375.72;;;17.36;69.28
28354;BME280;15603;50.878;8.036;2022-08-11T00:53:44;147390.34;;;17.42;69.18
28354;BME280;15603;50.878;8.036;2022-08-11T00:57:02;147361.03;;;17.30;68.92
28354;BME280;15603;50.878;8.036;2022-08-11T01:00:18;147348.84;;;17.25;69.37
28354;BME280;15603;50.878;8.036;2022-08-11T01:11:26;147330.53;;;17.17;69.54
28354;BME280;15603;50.878;8.036;2022-08-11T01:23:12;147295.13;;;17.02;71.62
28354;BME280;15603;50.878;8.036;2022-08-11T01:26:12;147271.94;;;16.93;71.42
28354;BME280;15603;50.878;8.036;2022-08-11T01:34:46;147226.72;;;16.74;71.63
28354;BME280;15603;50.878;8.036;2022-08-11T01:40:20;147214.50;;;16.68;72.13
28354;BME280;15603;50.878;8.036;2022-08-11T01:43:06;147182.81;;;16.55;73.12
28354;BME280;15603;50.878;8.036;2022-08-11T01:53:33;147174.25;;;16.52;74.03
28354;BME280;15603;50.878;8.036;2022-08-11T01:56:31;147160.84;;;16.46;72.90
28354;BME280;15603;50.878;8.036;2022-08-11T01:59:16;147131.53;;;16.34;73.56
28354;BME280;15603;50.878;8.036;2022-08-11T02:04:33;147109.59;;;16.24;75.09
28354;BME280;15603;50.878;8.036;2022-08-11T02:13:34;147014.44;;;15.84;75.25
28354;BME280;15603;50.878;8.036;2022-08-11T02:18:46;147048.56;;;15.99;75.49
28354;BME280;15603;50.878;8.036;2022-08-11T02:21:48;147070.53;;;16.08;76.84
28354;BME280;15603;50.878;8.036;2022-08-11T02:24:48;147068.06;;;16.07;77.41
28354;BME280;15603;50.878;8.036;2022-08-11T02:27:23;147046.16;;;15.98;76.69
28354;BME280;15603;50.878;8.036;2022-08-11T02:30:06;147048.56;;;15.99;76.93
28354;BME280;15603;50.878;8.036;2022-08-11T02:32:44;147014.44;;;15.84;76.55
28354;BME280;15603;50.878;8.036;2022-08-11T02:35:56;147055.91;;;16.02;76.68
28354;BME280;15603;50.878;8.036;2022-08-11T02:41:15;147032.72;;;15.92;76.56
28354;BME280;15603;50.878;8.036;2022-08-11T02:49:23;147026.59;;;15.89;77.63
28354;BME280;15603;50.878;8.036;2022-08-11T02:55:18;147036.41;;;15.94;76.37
28354;BME280;15603;50.878;8.036;2022-08-11T02:58:16;147011.97;;;15.83;77.67
28354;BME280;15603;50.878;8.036;2022-08-11T03:01:05;147007.09;;;15.81;77.63
28354;BME280;15603;50.878;8.036;2022-08-11T03:03:49;147009.56;;;15.82;77.83
28354;BME280;15603;50.878;8.036;2022-08-11T03:08:55;146971.66;;;15.66;78.75
28354;BME280;15603;50.878;8.036;2022-08-11T03:14:55;146970.47;;;15.66;78.12
28354;BME280;15603;50.878;8.036;2022-08-11T03:18:11;146960.72;;;15.62;78.63
28354;BME280;15603;50.878;8.036;2022-08-11T03:21:11;146963.16;;;15.63;78.68
28354;BME280;15603;50.878;8.036;2022-08-11T03:24:02;146938.75;;;15.52;79.41
28354;BME280;15603;50.878;8.036;2022-08-11T03:29:36;146914.38;;;15.42;79.37
28354;BME280;15603;50.878;8.036;2022-08-11T03:32:18;146902.16;;;15.37;79.82
28354;BME280;15603;50.878;8.036;2022-08-11T03:34:49;146933.88;;;15.50;79.51
28354;BME280;15603;50.878;8.036;2022-08-11T03:37:25;146919.25;;;15.44;78.52
28354;BME280;15603;50.878;8.036;2022-08-11T03:40:35;146924.13;;;15.46;78.89
28354;BME280;15603;50.878;8.036;2022-08-11T03:46:09;146910.72;;;15.41;79.94
28354;BME280;15603;50.878;8.036;2022-08-11T03:51:18;146870.47;;;15.24;80.83
28354;BME280;15603;50.878;8.036;2022-08-11T03:53:54;146866.84;;;15.22;79.50
28354;BME280;15603;50.878;8.036;2022-08-11T03:56:36;146885.13;;;15.30;79.54
28354;BME280;15603;50.878;8.036;2022-08-11T03:59:21;146872.91;;;15.25;79.96
28354;BME280;15603;50.878;8.036;2022-08-11T04:04:46;146866.84;;;15.22;80.97
28354;BME280;15603;50.878;8.036;2022-08-11T04:21:49;146902.16;;;15.37;79.57
28354;BME280;15603;50.878;8.036;2022-08-11T04:24:31;146885.13;;;15.30;80.23
28354;BME280;15603;50.878;8.036;2022-08-11T04:33:39;146875.34;;;15.26;79.52
28354;BME280;15603;50.878;8.036;2022-08-11T04:45:44;146909.50;;;15.40;78.55
28354;BME280;15603;50.878;8.036;2022-08-11T04:57:58;146949.75;;;15.57;77.83
28354;BME280;15603;50.878;8.036;2022-08-11T05:01:17;146955.84;;;15.60;77.72
28354;BME280;15603;50.878;8.036;2022-08-11T05:04:19;146963.16;;;15.63;77.94
28354;BME280;15603;50.878;8.036;2022-08-11T05:15:12;147001.00;;;15.79;77.36
28354;BME280;15603;50.878;8.036;2022-08-11T05:18:20;146992.47;;;15.75;78.65
28354;BME280;15603;50.878;8.036;2022-08-11T05:21:09;146993.69;;;15.76;77.88
28354;BME280;15603;50.878;8.036;2022-08-11T05:24:18;147059.56;;;16.03;77.16
28354;BME280;15603;50.878;8.036;2022-08-11T05:27:06;147066.88;;;16.06;76.41
28354;BME280;15603;50.878;8.036;2022-08-11T05:30:13;147087.63;;;16.15;76.77
28354;BME280;15603;50.878;8.036;2022-08-11T05:33:08;147107.13;;;16.23;76.69
28354;BME280;15603;50.878;8.036;2022-08-11T05:36:14;147141.28;;;16.38;76.19
28354;BME280;15603;50.878;8.036;2022-08-11T05:38:53;147080.28;;;16.12;75.02
28354;BME280;15603;50.878;8.036;2022-08-11T05:41:41;147192.56;;;16.59;75.13
28354;BME280;15603;50.878;8.036;2022-08-11T05:44:27;147245.03;;;16.81;74.24
28354;BME280;15603;50.878;8.036;2022-08-11T05:47:25;147263.38;;;16.89;74.51
28354;BME280;15603;50.878;8.036;2022-08-11T05:50:12;147290.22;;;17.00;73.76
28354;BME280;15603;50.878;8.036;2022-08-11T05:53:00;147339.06;;;17.21;72.69
28354;BME280;15603;50.878;8.036;2022-08-11T05:55:48;147361.03;;;17.30;72.43
28354;BME280;15603;50.878;8.036;2022-08-11T05:58:39;147253.63;;;16.85;71.71
28354;BME280;15603;50.878;8.036;2022-08-11T06:01:10;147397.66;;;17.45;72.34
28354;BME280;15603;50.878;8.036;2022-08-11T06:03:42;147375.72;;;17.36;72.46
28354;BME280;15603;50.878;8.036;2022-08-11T06:07:01;147448.97;;;17.67;71.72
28354;BME280;15603;50.878;8.036;2022-08-11T06:09:32;147468.50;;;17.75;70.70
28354;BME280;15603;50.878;8.036;2022-08-11T06:12:05;147514.94;;;17.95;70.95
28354;BME280;15603;50.878;8.036;2022-08-11T06:14:41;147544.25;;;18.07;70.73
28354;BME280;15603;50.878;8.036;2022-08-11T06:17:08;147568.69;;;18.17;71.73
28354;BME280;15603;50.878;8.036;2022-08-11T06:19:41;147602.88;;;18.32;70.91
28354;BME280;15603;50.878;8.036;2022-08-11T06:22:10;147555.25;;;18.12;68.89
28354;BME280;15603;50.878;8.036;2022-08-11T06:24:41;147690.84;;;18.69;67.87
28354;BME280;15603;50.878;8.036;2022-08-11T06:27:20;147695.78;;;18.71;67.39
28354;BME280;15603;50.878;8.036;2022-08-11T06:29:49;147661.53;;;18.56;67.33
28354;BME280;15603;50.878;8.036;2022-08-11T06:32:31;147676.19;;;18.62;64.97
28354;BME280;15603;50.878;8.036;2022-08-11T06:35:21;147802.13;;;19.15;65.23
28354;BME280;15603;50.878;8.036;2022-08-11T06:38:09;147849.78;;;19.35;61.22
28354;BME280;15603;50.878;8.036;2022-08-11T06:40:58;147887.69;;;19.51;60.53
28354;BME280;15603;50.878;8.036;2022-08-11T06:44:00;147912.16;;;19.61;60.01
28354;BME280;15603;50.878;8.036;2022-08-11T06:46:34;147953.78;;;19.79;58.83
28354;BME280;15603;50.878;8.036;2022-08-11T06:49:06;147972.13;;;19.87;58.26
28354;BME280;15603;50.878;8.036;2022-08-11T06:51:55;148003.91;;;20.00;57.79
28354;BME280;15603;50.878;8.036;2022-08-11T06:54:29;148007.59;;;20.02;57.79
28354;BME280;15603;50.878;8.036;2022-08-11T06:56:59;148049.16;;;20.19;57.20
28354;BME280;15603;50.878;8.036;2022-08-11T06:59:57;148104.19;;;20.42;56.60
28354;BME280;15603;50.878;8.036;2022-08-11T07:02:52;148116.41;;;20.47;56.05
28354;BME280;15603;50.878;8.036;2022-08-11T07:05:25;148123.75;;;20.50;55.08
28354;BME280;15603;50.878;8.036;2022-08-11T07:15:09;148307.34;;;21.27;53.95
28354;BME280;15603;50.878;8.036;2022-08-11T07:18:24;148290.19;;;21.20;52.66
28354;BME280;15603;50.878;8.036;2022-08-11T07:21:34;148421.22;;;21.75;52.54
28354;BME280;15603;50.878;8.036;2022-08-11T07:25:12;148446.91;;;21.86;51.55
28354;BME280;15603;50.878;8.036;2022-08-11T07:28:04;148491.00;;;22.04;51.26
28354;BME280;15603;50.878;8.036;2022-08-11T07:31:02;148552.25;;;22.30;51.06
28354;BME280;15603;50.878;8.036;2022-08-11T07:33:39;148611.06;;;22.54;50.49
28354;BME280;15603;50.878;8.036;2022-08-11T07:36:29;148620.84;;;22.59;50.07
28354;BME280;15603;50.878;8.036;2022-08-11T07:38:57;148677.19;;;22.82;49.47
28354;BME280;15603;50.878;8.036;2022-08-11T07:41:25;148723.72;;;23.02;48.58
28354;BME280;15603;50.878;8.036;2022-08-11T07:43:56;148745.81;;;23.11;48.24
28354;BME280;15603;50.878;8.036;2022-08-11T07:46:39;148809.53;;;23.38;47.95
28354;BME280;15603;50.878;8.036;2022-08-11T07:49:28;148873.28;;;23.64;46.50
28354;BME280;15603;50.878;8.036;2022-08-11T07:52:15;148895.34;;;23.74;46.38
28354;BME280;15603;50.878;8.036;2022-08-11T07:55:04;148949.31;;;23.96;45.74
28354;BME280;15603;50.878;8.036;2022-08-11T07:57:34;148981.16;;;24.09;44.37
28354;BME280;15603;50.878;8.036;2022-08-11T08:00:58;149031.41;;;24.30;43.76
28354;BME280;15603;50.878;8.036;2022-08-11T08:03:49;149057.19;;;24.41;43.55
28354;BME280;15603;50.878;8.036;2022-08-11T08:06:37;149062.06;;;24.43;42.44
28354;BME280;15603;50.878;8.036;2022-08-11T08:09:23;149113.63;;;24.65;42.63
28354;BME280;15603;50.878;8.036;2022-08-11T08:12:10;149044.91;;;24.36;42.03
28354;BME280;15603;50.878;8.036;2022-08-11T08:14:56;149154.09;;;24.82;41.89
28354;BME280;15603;50.878;8.036;2022-08-11T08:17:43;149159.00;;;24.84;41.94
28354;BME280;15603;50.878;8.036;2022-08-11T08:20:45;149214.19;;;25.07;41.71
28354;BME280;15603;50.878;8.036;2022-08-11T08:23:13;149156.56;;;24.83;41.56
28354;BME280;15603;50.878;8.036;2022-08-11T08:25:43;149216.66;;;25.08;41.86
28354;BME280;15603;50.878;8.036;2022-08-11T08:28:16;149206.84;;;25.04;41.30
28354;BME280;15603;50.878;8.036;2022-08-11T08:30:45;149271.91;;;25.31;41.33
28354;BME280;15603;50.878;8.036;2022-08-11T08:33:22;149300.09;;;25.43;40.67
28354;BME280;15603;50.878;8.036;2022-08-11T08:35:56;149292.72;;;25.40;40.31
28354;BME280;15603;50.878;8.036;2022-08-11T08:41:18;149343.03;;;25.61;39.92
28354;BME280;15603;50.878;8.036;2022-08-11T08:43:51;149373.72;;;25.74;39.30
28354;BME280;15603;50.878;8.036;2022-08-11T08:46:33;149397.00;;;25.83;40.24
28354;BME280;15603;50.878;8.036;2022-08-11T08:49:03;149424.06;;;25.95;40.07
28354;BME280;15603;50.878;8.036;2022-08-11T08:51:35;149430.19;;;25.97;38.91
28354;BME280;15603;50.878;8.036;2022-08-11T08:54:34;149447.38;;;26.04;39.21
28354;BME280;15603;50.878;8.036;2022-08-11T08:57:05;149481.72;;;26.19;39.81
28354;BME280;15603;50.878;8.036;2022-08-11T08:59:36;149449.81;;;26.05;38.31
28354;BME280;15603;50.878;8.036;2022-08-11T09:02:17;149500.13;;;26.27;38.70
28354;BME280;15603;50.878;8.036;2022-08-11T09:05:01;149509.94;;;26.31;38.10
28354;BME280;15603;50.878;8.036;2022-08-11T09:07:30;149452.28;;;26.07;37.16
28354;BME280;15603;50.878;8.036;2022-08-11T09:10:08;149540.63;;;26.43;38.23
28354;BME280;15603;50.878;8.036;2022-08-11T09:12:38;149574.97;;;26.58;38.63
28354;BME280;15603;50.878;8.036;2022-08-11T09:15:08;149594.69;;;26.66;37.76
28354;BME280;15603;50.878;8.036;2022-08-11T09:17:45;149568.84;;;26.55;37.42
28354;BME280;15603;50.878;8.036;2022-08-11T09:20:21;149543.09;;;26.44;36.42
28354;BME280;15603;50.878;8.036;2022-08-11T09:22:55;149587.31;;;26.63;36.30
28354;BME280;15603;50.878;8.036;2022-08-11T09:26:01;149615.53;;;26.75;35.89
28354;BME280;15603;50.878;8.036;2022-08-11T09:29:01;149632.72;;;26.82;36.17
28354;BME280;15603;50.878;8.036;2022-08-11T09:31:31;149662.19;;;26.94;36.38
28354;BME280;15603;50.878;8.036;2022-08-11T09:34:08;149635.22;;;26.83;36.29
28354;BME280;15603;50.878;8.036;2022-08-11T09:36:38;149633.94;;;26.82;34.73
28354;BME280;15603;50.878;8.036;2022-08-11T09:39:25;149646.25;;;26.88;34.43
28354;BME280;15603;50.878;8.036;2022-08-11T09:42:12;149669.56;;;26.97;34.61
28354;BME280;15603;50.878;8.036;2022-08-11T09:44:42;149663.44;;;26.95;36.37
28354;BME280;15603;50.878;8.036;2022-08-11T09:47:22;149705.19;;;27.12;34.32
28354;BME280;15603;50.878;8.036;2022-08-11T09:49:54;149679.38;;;27.01;35.06
28354;BME280;15603;50.878;8.036;2022-08-11T09:52:22;149695.38;;;27.08;34.34
28354;BME280;15603;50.878;8.036;2022-08-11T09:54:51;149660.97;;;26.94;33.23
28354;BME280;15603;50.878;8.036;2022-08-11T09:57:22;149672.03;;;26.98;34.47
28354;BME280;15603;50.878;8.036;2022-08-11T10:00:11;149641.34;;;26.86;33.57
28354;BME280;15603;50.878;8.036;2022-08-11T10:02:45;149675.69;;;27.00;33.71
28354;BME280;15603;50.878;8.036;2022-08-11T10:05:17;149700.28;;;27.10;33.37
28354;BME280;15603;50.878;8.036;2022-08-11T10:08:04;149656.06;;;26.92;33.27
28354;BME280;15603;50.878;8.036;2022-08-11T10:10:35;149732.19;;;27.23;35.15
28354;BME280;15603;50.878;8.036;2022-08-11T10:13:06;149774.00;;;27.41;34.76
28354;BME280;15603;50.878;8.036;2022-08-11T10:15:57;149728.50;;;27.22;32.87
28354;BME280;15603;50.878;8.036;2022-08-11T10:18:46;149809.56;;;27.56;33.11
28354;BME280;15603;50.878;8.036;2022-08-11T10:24:43;149783.81;;;27.45;34.78
28354;BME280;15603;50.878;8.036;2022-08-11T10:27:29;149841.50;;;27.69;33.40
28354;BME280;15603;50.878;8.036;2022-08-11T10:30:17;149869.75;;;27.81;33.36
28354;BME280;15603;50.878;8.036;2022-08-11T10:33:07;149874.69;;;27.83;34.65
28354;BME280;15603;50.878;8.036;2022-08-11T10:36:03;149874.69;;;27.83;32.74
28354;BME280;15603;50.878;8.036;2022-08-11T10:38:45;149869.75;;;27.81;32.07
28354;BME280;15603;50.878;8.036;2022-08-11T10:41:13;149866.09;;;27.79;32.77
28354;BME280;15603;50.878;8.036;2022-08-11T10:43:59;149905.44;;;27.96;32.13
28354;BME280;15603;50.878;8.036;2022-08-11T10:46:30;149907.91;;;27.97;33.51
28354;BME280;15603;50.878;8.036;2022-08-11T10:49:17;149899.31;;;27.93;31.35
28354;BME280;15603;50.878;8.036;2022-08-11T10:51:46;149916.50;;;28.00;32.05
28354;BME280;15603;50.878;8.036;2022-08-11T10:54:34;149867.31;;;27.80;31.27
28354;BME280;15603;50.878;8.036;2022-08-11T10:57:21;149894.38;;;27.91;31.63
28354;BME280;15603;50.878;8.036;2022-08-11T11:00:09;149910.34;;;27.98;31.76
28354;BME280;15603;50.878;8.036;2022-08-11T11:02:44;149950.88;;;28.15;33.77
28354;BME280;15603;50.878;8.036;2022-08-11T11:05:32;149931.25;;;28.07;32.48
28354;BME280;15603;50.878;8.036;2022-08-11T11:08:08;150002.47;;;28.36;32.92
28354;BME280;15603;50.878;8.036;2022-08-11T11:10:57;150070.09;;;28.65;30.81
28354;BME280;15603;50.878;8.036;2022-08-11T11:13:25;150009.88;;;28.39;31.65
28354;BME280;15603;50.878;8.036;2022-08-11T11:16:22;150050.47;;;28.56;30.64
28354;BME280;15603;50.878;8.036;2022-08-11T11:19:09;150025.81;;;28.46;30.25
28354;BME280;15603;50.878;8.036;2022-08-11T11:21:37;150033.19;;;28.49;30.29
28354;BME280;15603;50.878;8.036;2022-08-11T11:29:41;150084.84;;;28.71;30.73
28354;BME280;15603;50.878;8.036;2022-08-11T11:37:21;150054.13;;;28.58;32.78
28354;BME280;15603;50.878;8.036;2022-08-11T11:39:50;150065.19;;;28.63;34.38
28354;BME280;15603;50.878;8.036;2022-08-11T11:42:20;150109.41;;;28.81;33.14
28354;BME280;15603;50.878;8.036;2022-08-11T11:44:48;150135.22;;;28.92;31.39
28354;BME280;15603;50.878;8.036;2022-08-11T11:47:15;150145.06;;;28.96;33.86
28354;BME280;15603;50.878;8.036;2022-08-11T11:49:48;150081.16;;;28.69;29.99
28354;BME280;15603;50.878;8.036;2022-08-11T11:52:18;150152.44;;;28.99;30.44
28354;BME280;15603;50.878;8.036;2022-08-11T11:54:47;150194.28;;;29.16;32.66
28354;BME280;15603;50.878;8.036;2022-08-11T11:57:17;150213.94;;;29.25;29.59
28354;BME280;15603;50.878;8.036;2022-08-11T12:00:06;150120.50;;;28.86;28.33
28354;BME280;15603;50.878;8.036;2022-08-11T12:03:06;150167.19;;;29.05;31.14
28354;BME280;15603;50.878;8.036;2022-08-11T12:05:35;150136.44;;;28.92;33.44
28354;BME280;15603;50.878;8.036;2022-08-11T12:08:03;150238.50;;;29.35;30.75
28354;BME280;15603;50.878;8.036;2022-08-11T12:10:51;150233.59;;;29.33;30.84
28354;BME280;15603;50.878;8.036;2022-08-11T12:13:40;150284.00;;;29.54;31.30
28354;BME280;15603;50.878;8.036;2022-08-11T12:16:12;150228.69;;;29.31;28.97
28354;BME280;15603;50.878;8.036;2022-08-11T12:19:15;150183.16;;;29.12;30.87
28354;BME280;15603;50.878;8.036;2022-08-11T12:21:42;150168.41;;;29.06;29.70
28354;BME280;15603;50.878;8.036;2022-08-11T12:24:30;150206.59;;;29.22;30.83
28354;BME280;15603;50.878;8.036;2022-08-11T12:27:17;150233.59;;;29.33;31.66
28354;BME280;15603;50.878;8.036;2022-08-11T12:32:25;150255.72;;;29.42;32.63
28354;BME280;15603;50.878;8.036;2022-08-11T12:34:53;150265.53;;;29.46;30.46
28354;BME280;15603;50.878;8.036;2022-08-11T12:37:27;150226.25;;;29.30;32.33
28354;BME280;15603;50.878;8.036;2022-08-11T12:40:03;150325.78;;;29.71;30.59
28354;BME280;15603;50.878;8.036;2022-08-11T12:43:14;150298.78;;;29.60;31.42
28354;BME280;15603;50.878;8.036;2022-08-11T12:46:28;150391.03;;;29.99;28.90
28354;BME280;15603;50.878;8.036;2022-08-11T12:48:58;150354.16;;;29.83;30.68
28354;BME280;15603;50.878;8.036;2022-08-11T12:51:49;150349.19;;;29.81;29.10
28354;BME280;15603;50.878;8.036;2022-08-11T12:57:14;150347.97;;;29.81;28.87
28354;BME280;15603;50.878;8.036;2022-08-11T13:00:13;150349.19;;;29.81;29.17
28354;BME280;15603;50.878;8.036;2022-08-11T13:02:59;150354.16;;;29.83;29.01
28354;BME280;15603;50.878;8.036;2022-08-11T13:05:46;150389.78;;;29.98;30.27
28354;BME280;15603;50.878;8.036;2022-08-11T13:08:16;150371.31;;;29.90;28.41
28354;BME280;15603;50.878;8.036;2022-08-11T13:10:44;150388.56;;;29.98;29.52
28354;BME280;15603;50.878;8.036;2022-08-11T13:13:31;150309.81;;;29.65;29.07
28354;BME280;15603;50.878;8.036;2022-08-11T13:16:21;150351.66;;;29.82;28.28
28354;BME280;15603;50.878;8.036;2022-08-11T13:18:49;150270.47;;;29.48;30.23
28354;BME280;15603;50.878;8.036;2022-08-11T13:21:20;150392.25;;;29.99;28.45
28354;BME280;15603;50.878;8.036;2022-08-11T13:23:49;150366.41;;;29.88;28.86
28354;BME280;15603;50.878;8.036;2022-08-11T13:26:30;150300.00;;;29.61;29.47
28354;BME280;15603;50.878;8.036;2022-08-11T13:29:24;150382.41;;;29.95;28.06
28354;BME280;15603;50.878;8.036;2022-08-11T13:31:53;150447.59;;;30.22;30.12
28354;BME280;15603;50.878;8.036;2022-08-11T13:34:23;150290.16;;;29.56;27.09
28354;BME280;15603;50.878;8.036;2022-08-11T13:36:53;150349.19;;;29.81;26.64
28354;BME280;15603;50.878;8.036;2022-08-11T13:39:30;150356.59;;;29.84;28.63
28354;BME280;15603;50.878;8.036;2022-08-11T13:41:59;150388.56;;;29.98;26.94
28354;BME280;15603;50.878;8.036;2022-08-11T13:44:29;150402.09;;;30.03;28.77
28354;BME280;15603;50.878;8.036;2022-08-11T13:47:02;150452.50;;;30.24;27.97
28354;BME280;15603;50.878;8.036;2022-08-11T13:49:31;150471.00;;;30.32;28.44
28354;BME280;15603;50.878;8.036;2022-08-11T13:52:01;150399.59;;;30.02;26.92
28354;BME280;15603;50.878;8.036;2022-08-11T13:54:31;150445.09;;;30.21;27.10
28354;BME280;15603;50.878;8.036;2022-08-11T13:57:04;150467.25;;;30.30;28.84
28354;BME280;15603;50.878;8.036;2022-08-11T13:59:35;150402.09;;;30.03;29.35
28354;BME280;15603;50.878;8.036;2022-08-11T14:02:23;150507.88;;;30.47;28.09
28354;BME280;15603;50.878;8.036;2022-08-11T14:05:22;150509.09;;;30.48;28.20
28354;BME280;15603;50.878;8.036;2022-08-11T14:07:54;150477.13;;;30.34;28.78
28354;BME280;15603;50.878;8.036;2022-08-11T14:10:27;150425.44;;;30.13;29.37
28354;BME280;15603;50.878;8.036;2022-08-11T14:12:58;150543.56;;;30.62;27.25
28354;BME280;15603;50.878;8.036;2022-08-11T14:15:46;150484.53;;;30.38;27.55
28354;BME280;15603;50.878;8.036;2022-08-11T14:18:28;150466.03;;;30.30;28.20
28354;BME280;15603;50.878;8.036;2022-08-11T14:20:58;150526.34;;;30.55;27.92
28354;BME280;15603;50.878;8.036;2022-08-11T14:23:46;150506.66;;;30.47;28.01
28354;BME280;15603;50.878;8.036;2022-08-11T14:26:17;150478.34;;;30.35;28.02
28354;BME280;15603;50.878;8.036;2022-08-11T14:29:04;150580.47;;;30.78;31.98
28354;BME280;15603;50.878;8.036;2022-08-11T14:31:33;150603.84;;;30.87;27.45
28354;BME280;15603;50.878;8.036;2022-08-11T14:34:04;150622.34;;;30.95;27.36
28354;BME280;15603;50.878;8.036;2022-08-11T14:36:38;150531.25;;;30.57;28.01
28354;BME280;15603;50.878;8.036;2022-08-11T14:39:13;150478.34;;;30.35;28.25
28354;BME280;15603;50.878;8.036;2022-08-11T14:41:54;150418.03;;;30.10;27.93
28354;BME280;15603;50.878;8.036;2022-08-11T14:44:43;150574.28;;;30.75;29.33
28354;BME280;15603;50.878;8.036;2022-08-11T14:47:32;150539.88;;;30.61;27.57
28354;BME280;15603;50.878;8.036;2022-08-11T14:50:01;150522.63;;;30.53;28.18
28354;BME280;15603;50.878;8.036;2022-08-11T14:52:43;150471.00;;;30.32;30.62
28354;BME280;15603;50.878;8.036;2022-08-11T14:55:12;150499.28;;;30.44;31.16
28354;BME280;15603;50.878;8.036;2022-08-11T14:57:59;150450.03;;;30.23;27.93
28354;BME280;15603;50.878;8.036;2022-08-11T15:00:27;150546.00;;;30.63;28.50
28354;BME280;15603;50.878;8.036;2022-08-11T15:02:55;150555.84;;;30.67;27.52
28354;BME280;15603;50.878;8.036;2022-08-11T15:05:55;150536.16;;;30.59;26.99
28354;BME280;15603;50.878;8.036;2022-08-11T15:08:27;150555.84;;;30.67;30.50
28354;BME280;15603;50.878;8.036;2022-08-11T15:11:15;150595.22;;;30.84;26.32
28354;BME280;15603;50.878;8.036;2022-08-11T15:14:04;150610.03;;;30.90;27.78
28354;BME280;15603;50.878;8.036;2022-08-11T15:16:34;150579.22;;;30.77;27.17
28354;BME280;15603;50.878;8.036;2022-08-11T15:19:21;150618.63;;;30.94;28.22
28354;BME280;15603;50.878;8.036;2022-08-11T15:21:50;150718.25;;;31.35;28.11
28354;BME280;15603;50.878;8.036;2022-08-11T15:24:36;150633.38;;;31.00;26.69
28354;BME280;15603;50.878;8.036;2022-08-11T15:27:22;150728.13;;;31.39;25.77
28354;BME280;15603;50.878;8.036;2022-08-11T15:30:09;150783.56;;;31.62;26.33
28354;BME280;15603;50.878;8.036;2022-08-11T15:33:10;150792.13;;;31.66;24.49
28354;BME280;15603;50.878;8.036;2022-08-11T15:35:56;150843.84;;;31.87;25.74
28354;BME280;15603;50.878;8.036;2022-08-11T15:39:00;150885.75;;;32.05;24.72
28354;BME280;15603;50.878;8.036;2022-08-11T15:41:50;150943.56;;;32.29;27.38
28354;BME280;15603;50.878;8.036;2022-08-11T15:44:40;150952.19;;;32.33;24.62
28354;BME280;15603;50.878;8.036;2022-08-11T15:47:36;151065.50;;;32.80;25.01
28354;BME280;15603;50.878;8.036;2022-08-11T15:50:10;150942.34;;;32.28;23.96
28354;BME280;15603;50.878;8.036;2022-08-11T15:52:46;151018.69;;;32.60;23.43
28354;BME280;15603;50.878;8.036;2022-08-11T15:55:16;151123.38;;;33.04;24.52
28354;BME280;15603;50.878;8.036;2022-08-11T15:57:46;151109.81;;;32.98;23.54
28354;BME280;15603;50.878;8.036;2022-08-11T16:00:45;151156.66;;;33.18;22.71
28354;BME280;15603;50.878;8.036;2022-08-11T16:03:48;151395.69;;;34.17;24.95
28354;BME280;15603;50.878;8.036;2022-08-11T16:12:44;151664.41;;;35.29;23.59
28354;BME280;15603;50.878;8.036;2022-08-11T16:15:36;151552.22;;;34.83;21.02
28354;BME280;15603;50.878;8.036;2022-08-11T16:18:27;151685.41;;;35.38;22.63
28354;BME280;15603;50.878;8.036;2022-08-11T16:21:12;151812.41;;;35.91;20.68
28354;BME280;15603;50.878;8.036;2022-08-11T16:24:00;151745.78;;;35.63;20.19
28354;BME280;15603;50.878;8.036;2022-08-11T16:26:30;151698.97;;;35.44;20.58
28354;BME280;15603;50.878;8.036;2022-08-11T16:29:18;151689.09;;;35.39;20.09
28354;BME280;15603;50.878;8.036;2022-08-11T16:31:48;151776.63;;;35.76;20.24
28354;BME280;15603;50.878;8.036;2022-08-11T16:34:38;151674.28;;;35.33;19.92
28354;BME280;15603;50.878;8.036;2022-08-11T16:37:25;151621.25;;;35.11;19.97
28354;BME280;15603;50.878;8.036;2022-08-11T16:40:12;151499.19;;;34.60;21.24
28354;BME280;15603;50.878;8.036;2022-08-11T16:42:41;151570.72;;;34.90;20.61
28354;BME280;15603;50.878;8.036;2022-08-11T16:45:39;151644.72;;;35.21;20.85
28354;BME280;15603;50.878;8.036;2022-08-11T16:48:36;151677.97;;;35.35;19.77
28354;BME280;15603;50.878;8.036;2022-08-11T16:51:06;151888.91;;;36.23;19.86